sensor_id;sensor_type;location;lat;lon;timestamp;temperature;humidity
65207;SHT31;58477;48.072;11.970;2023-09-12T00:01:57;17.31;95.53
65207;SHT31;58477;48.072;11.970;2023-09-12T00:04:23;17.31;95.73
65207;SHT31;58477;48.072;11.970;2023-09-12T00:06:48;17.30;95.97
65207;SHT31;58477;48.072;11.970;2023-09-12T00:09:14;17.37;95.84
65207;SHT31;58477;48.072;11.970;2023-09-12T00:11:39;17.41;95.54
65207;SHT31;58477;48.072;11.970;2023-09-12T00:14:04;17.37;95.61
65207;SHT31;58477;48.072;11.970;2023-09-12T00:16:30;17.45;95.72
65207;SHT31;58477;48.072;11.970;2023-09-12T00:18:55;17.37;95.55
65207;SHT31;58477;48.072;11.970;2023-09-12T00:21:20;17.27;95.63
65207;SHT31;58477;48.072;11.970;2023-09-12T00:23:46;17.42;95.12
65207;SHT31;58477;48.072;11.970;2023-09-12T00:26:12;17.39;95.77
65207;SHT31;58477;48.072;11.970;2023-09-12T00:28:38;17.47;95.15
65207;SHT31;58477;48.072;11.970;2023-09-12T00:31:04;17.54;95.08
65207;SHT31;58477;48.072;11.970;2023-09-12T00:33:29;17.55;95.12
65207;SHT31;58477;48.072;11.970;2023-09-12T00:35:54;17.38;95.31
65207;SHT31;58477;48.072;11.970;2023-09-12T00:38:20;17.34;95.69
65207;SHT31;58477;48.072;11.970;2023-09-12T00:40:46;17.23;95.70
65207;SHT31;58477;48.072;11.970;2023-09-12T00:43:11;17.44;95.84
65207;SHT31;58477;48.072;11.970;2023-09-12T00:45:36;17.49;95.50
65207;SHT31;58477;48.072;11.970;2023-09-12T00:48:04;17.37;95.62
65207;SHT31;58477;48.072;11.970;2023-09-12T00:50:30;17.34;95.83
65207;SHT31;58477;48.072;11.970;2023-09-12T00:52:57;17.30;95.96
65207;SHT31;58477;48.072;11.970;2023-09-12T00:55:22;17.15;96.21
65207;SHT31;58477;48.072;11.970;2023-09-12T00:57:48;17.02;96.29
65207;SHT31;58477;48.072;11.970;2023-09-12T01:00:15;17.08;96.82
65207;SHT31;58477;48.072;11.970;2023-09-12T01:02:41;17.07;96.59
65207;SHT31;58477;48.072;11.970;2023-09-12T01:05:09;17.10;96.77
65207;SHT31;58477;48.072;11.970;2023-09-12T01:07:36;17.08;96.46
65207;SHT31;58477;48.072;11.970;2023-09-12T01:10:02;17.06;96.43
65207;SHT31;58477;48.072;11.970;2023-09-12T01:12:29;16.91;96.50
65207;SHT31;58477;48.072;11.970;2023-09-12T01:14:55;16.87;96.76
65207;SHT31;58477;48.072;11.970;2023-09-12T01:17:21;16.85;96.86
65207;SHT31;58477;48.072;11.970;2023-09-12T01:19:47;16.93;96.82
65207;SHT31;58477;48.072;11.970;2023-09-12T01:27:48;16.73;97.27
65207;SHT31;58477;48.072;11.970;2023-09-12T01:30:21;16.62;97.50
65207;SHT31;58477;48.072;11.970;2023-09-12T01:32:48;16.77;97.44
65207;SHT31;58477;48.072;11.970;2023-09-12T01:35:14;16.90;97.13
65207;SHT31;58477;48.072;11.970;2023-09-12T01:37:39;16.94;97.16
65207;SHT31;58477;48.072;11.970;2023-09-12T01:40:06;16.91;97.05
65207;SHT31;58477;48.072;11.970;2023-09-12T01:42:42;16.95;97.28
65207;SHT31;58477;48.072;11.970;2023-09-12T01:45:11;16.94;97.12
65207;SHT31;58477;48.072;11.970;2023-09-12T01:47:38;16.93;97.53
65207;SHT31;58477;48.072;11.970;2023-09-12T01:50:05;16.93;97.37
65207;SHT31;58477;48.072;11.970;2023-09-12T01:52:33;16.88;97.36
65207;SHT31;58477;48.072;11.970;2023-09-12T01:54:59;16.84;97.53
65207;SHT31;58477;48.072;11.970;2023-09-12T01:57:25;16.87;97.80
65207;SHT31;58477;48.072;11.970;2023-09-12T01:59:51;16.91;97.94
65207;SHT31;58477;48.072;11.970;2023-09-12T02:02:17;16.87;98.07
65207;SHT31;58477;48.072;11.970;2023-09-12T02:04:54;16.87;98.34
65207;SHT31;58477;48.072;11.970;2023-09-12T02:07:25;16.79;98.48
65207;SHT31;58477;48.072;11.970;2023-09-12T02:09:51;16.70;98.41
65207;SHT31;58477;48.072;11.970;2023-09-12T02:12:16;16.62;98.66
65207;SHT31;58477;48.072;11.970;2023-09-12T02:14:42;16.64;98.66
65207;SHT31;58477;48.072;11.970;2023-09-12T02:17:07;16.69;98.66
65207;SHT31;58477;48.072;11.970;2023-09-12T02:19:32;16.64;98.02
65207;SHT31;58477;48.072;11.970;2023-09-12T02:21:58;16.59;97.65
65207;SHT31;58477;48.072;11.970;2023-09-12T02:24:24;16.53;97.61
65207;SHT31;58477;48.072;11.970;2023-09-12T02:26:50;16.48;97.76
65207;SHT31;58477;48.072;11.970;2023-09-12T02:29:15;16.33;97.81
65207;SHT31;58477;48.072;11.970;2023-09-12T02:31:40;16.29;98.23
65207;SHT31;58477;48.072;11.970;2023-09-12T02:34:06;16.16;98.51
65207;SHT31;58477;48.072;11.970;2023-09-12T02:36:32;16.10;98.75
65207;SHT31;58477;48.072;11.970;2023-09-12T02:38:58;16.09;98.84
65207;SHT31;58477;48.072;11.970;2023-09-12T02:41:23;16.08;98.91
65207;SHT31;58477;48.072;11.970;2023-09-12T02:43:49;16.10;99.08
65207;SHT31;58477;48.072;11.970;2023-09-12T02:46:14;16.05;98.97
65207;SHT31;58477;48.072;11.970;2023-09-12T02:48:40;16.15;99.32
65207;SHT31;58477;48.072;11.970;2023-09-12T02:51:06;16.22;98.89
65207;SHT31;58477;48.072;11.970;2023-09-12T02:53:31;16.06;98.74
65207;SHT31;58477;48.072;11.970;2023-09-12T02:55:57;15.91;99.04
65207;SHT31;58477;48.072;11.970;2023-09-12T02:58:22;15.85;99.99
65207;SHT31;58477;48.072;11.970;2023-09-12T03:00:48;15.75;99.82
65207;SHT31;58477;48.072;11.970;2023-09-12T03:03:15;15.81;99.99
65207;SHT31;58477;48.072;11.970;2023-09-12T03:05:42;15.81;99.84
65207;SHT31;58477;48.072;11.970;2023-09-12T03:08:07;15.98;99.67
65207;SHT31;58477;48.072;11.970;2023-09-12T03:10:32;16.02;99.20
65207;SHT31;58477;48.072;11.970;2023-09-12T03:12:58;16.09;98.84
65207;SHT31;58477;48.072;11.970;2023-09-12T03:15:23;16.06;98.73
65207;SHT31;58477;48.072;11.970;2023-09-12T03:17:50;16.02;99.43
65207;SHT31;58477;48.072;11.970;2023-09-12T03:20:15;16.23;98.63
65207;SHT31;58477;48.072;11.970;2023-09-12T03:22:41;16.19;98.74
65207;SHT31;58477;48.072;11.970;2023-09-12T03:25:07;16.30;98.48
65207;SHT31;58477;48.072;11.970;2023-09-12T03:27:32;16.18;98.78
65207;SHT31;58477;48.072;11.970;2023-09-12T03:29:58;16.22;98.94
65207;SHT31;58477;48.072;11.970;2023-09-12T03:32:24;16.10;99.09
65207;SHT31;58477;48.072;11.970;2023-09-12T03:34:50;16.32;98.52
65207;SHT31;58477;48.072;11.970;2023-09-12T03:37:15;16.18;98.57
65207;SHT31;58477;48.072;11.970;2023-09-12T03:39:41;16.22;98.77
65207;SHT31;58477;48.072;11.970;2023-09-12T03:42:06;16.42;98.66
65207;SHT31;58477;48.072;11.970;2023-09-12T03:44:32;16.43;98.72
65207;SHT31;58477;48.072;11.970;2023-09-12T03:46:57;16.38;98.84
65207;SHT31;58477;48.072;11.970;2023-09-12T03:49:23;16.28;98.82
65207;SHT31;58477;48.072;11.970;2023-09-12T03:51:49;16.16;99.02
65207;SHT31;58477;48.072;11.970;2023-09-12T03:54:14;16.08;99.31
65207;SHT31;58477;48.072;11.970;2023-09-12T03:56:40;15.99;99.51
65207;SHT31;58477;48.072;11.970;2023-09-12T03:59:05;16.08;99.44
65207;SHT31;58477;48.072;11.970;2023-09-12T04:01:32;16.09;99.16
65207;SHT31;58477;48.072;11.970;2023-09-12T04:03:58;16.09;99.06
65207;SHT31;58477;48.072;11.970;2023-09-12T04:06:24;16.09;98.88
65207;SHT31;58477;48.072;11.970;2023-09-12T04:08:49;15.99;98.84
65207;SHT31;58477;48.072;11.970;2023-09-12T04:11:20;15.99;98.80
65207;SHT31;58477;48.072;11.970;2023-09-12T04:13:48;16.05;98.71
65207;SHT31;58477;48.072;11.970;2023-09-12T04:16:14;16.02;98.82
65207;SHT31;58477;48.072;11.970;2023-09-12T04:18:40;15.87;98.64
65207;SHT31;58477;48.072;11.970;2023-09-12T04:21:06;15.62;99.10
65207;SHT31;58477;48.072;11.970;2023-09-12T04:23:41;15.51;99.99
65207;SHT31;58477;48.072;11.970;2023-09-12T04:26:07;15.64;99.99
65207;SHT31;58477;48.072;11.970;2023-09-12T04:28:35;15.72;99.74
65207;SHT31;58477;48.072;11.970;2023-09-12T04:31:11;15.67;99.83
65207;SHT31;58477;48.072;11.970;2023-09-12T04:33:37;15.68;99.83
65207;SHT31;58477;48.072;11.970;2023-09-12T04:36:07;15.69;99.99
65207;SHT31;58477;48.072;11.970;2023-09-12T04:38:33;15.68;99.99
65207;SHT31;58477;48.072;11.970;2023-09-12T04:41:05;15.77;99.99
65207;SHT31;58477;48.072;11.970;2023-09-12T04:43:37;15.74;99.99
65207;SHT31;58477;48.072;11.970;2023-09-12T04:46:03;15.89;99.99
65207;SHT31;58477;48.072;11.970;2023-09-12T04:48:31;15.95;99.99
65207;SHT31;58477;48.072;11.970;2023-09-12T04:51:14;15.87;99.96
65207;SHT31;58477;48.072;11.970;2023-09-12T04:53:45;15.97;99.99
65207;SHT31;58477;48.072;11.970;2023-09-12T04:56:19;15.95;99.92
65207;SHT31;58477;48.072;11.970;2023-09-12T04:58:48;15.99;99.88
65207;SHT31;58477;48.072;11.970;2023-09-12T05:01:19;16.10;99.91
65207;SHT31;58477;48.072;11.970;2023-09-12T05:03:48;16.12;99.53
65207;SHT31;58477;48.072;11.970;2023-09-12T05:06:25;16.02;99.47
65207;SHT31;58477;48.072;11.970;2023-09-12T05:08:59;16.12;99.97
65207;SHT31;58477;48.072;11.970;2023-09-12T05:11:25;16.13;99.88
65207;SHT31;58477;48.072;11.970;2023-09-12T05:13:53;16.18;99.69
65207;SHT31;58477;48.072;11.970;2023-09-12T05:16:19;16.18;99.61
65207;SHT31;58477;48.072;11.970;2023-09-12T05:18:51;16.25;99.74
65207;SHT31;58477;48.072;11.970;2023-09-12T05:21:17;16.42;99.39
65207;SHT31;58477;48.072;11.970;2023-09-12T05:23:43;16.42;99.52
65207;SHT31;58477;48.072;11.970;2023-09-12T05:26:16;16.48;99.79
65207;SHT31;58477;48.072;11.970;2023-09-12T05:28:48;16.73;99.01
65207;SHT31;58477;48.072;11.970;2023-09-12T05:31:14;16.85;99.22
65207;SHT31;58477;48.072;11.970;2023-09-12T05:33:45;17.13;99.03
65207;SHT31;58477;48.072;11.970;2023-09-12T05:36:25;18.03;97.42
65207;SHT31;58477;48.072;11.970;2023-09-12T05:38:54;19.06;94.23
65207;SHT31;58477;48.072;11.970;2023-09-12T05:41:24;19.83;91.80
65207;SHT31;58477;48.072;11.970;2023-09-12T05:43:53;20.27;89.75
65207;SHT31;58477;48.072;11.970;2023-09-12T05:46:24;20.23;88.96
65207;SHT31;58477;48.072;11.970;2023-09-12T05:49:04;19.93;88.78
65207;SHT31;58477;48.072;11.970;2023-09-12T05:51:30;20.10;88.54
65207;SHT31;58477;48.072;11.970;2023-09-12T05:54:00;20.27;87.91
65207;SHT31;58477;48.072;11.970;2023-09-12T05:56:27;20.43;87.73
65207;SHT31;58477;48.072;11.970;2023-09-12T05:59:00;21.81;84.39
65207;SHT31;58477;48.072;11.970;2023-09-12T06:01:26;22.19;83.04
65207;SHT31;58477;48.072;11.970;2023-09-12T06:03:55;22.77;81.66
65207;SHT31;58477;48.072;11.970;2023-09-12T06:06:26;22.59;81.78
65207;SHT31;58477;48.072;11.970;2023-09-12T06:08:52;22.43;82.99
65207;SHT31;58477;48.072;11.970;2023-09-12T06:11:21;22.60;82.86
65207;SHT31;58477;48.072;11.970;2023-09-12T06:13:50;22.78;82.27
65207;SHT31;58477;48.072;11.970;2023-09-12T06:16:24;22.87;82.21
65207;SHT31;58477;48.072;11.970;2023-09-12T06:18:50;22.80;82.47
65207;SHT31;58477;48.072;11.970;2023-09-12T06:21:21;22.68;82.04
65207;SHT31;58477;48.072;11.970;2023-09-12T06:24:28;23.69;80.04
65207;SHT31;58477;48.072;11.970;2023-09-12T06:26:54;24.57;77.30
65207;SHT31;58477;48.072;11.970;2023-09-12T06:29:24;24.27;77.92
65207;SHT31;58477;48.072;11.970;2023-09-12T06:31:50;24.68;76.94
65207;SHT31;58477;48.072;11.970;2023-09-12T06:34:23;24.74;76.74
65207;SHT31;58477;48.072;11.970;2023-09-12T06:36:52;24.91;76.09
65207;SHT31;58477;48.072;11.970;2023-09-12T06:39:21;25.15;72.60
65207;SHT31;58477;48.072;11.970;2023-09-12T06:41:58;25.57;72.23
65207;SHT31;58477;48.072;11.970;2023-09-12T06:44:33;25.93;72.78
65207;SHT31;58477;48.072;11.970;2023-09-12T06:47:00;25.83;72.65
65207;SHT31;58477;48.072;11.970;2023-09-12T06:49:29;25.89;70.71
65207;SHT31;58477;48.072;11.970;2023-09-12T06:52:03;25.69;69.99
65207;SHT31;58477;48.072;11.970;2023-09-12T06:54:33;26.33;67.55
65207;SHT31;58477;48.072;11.970;2023-09-12T06:57:02;27.02;64.28
65207;SHT31;58477;48.072;11.970;2023-09-12T06:59:41;27.55;64.13
65207;SHT31;58477;48.072;11.970;2023-09-12T07:02:08;27.83;64.41
65207;SHT31;58477;48.072;11.970;2023-09-12T07:04:36;28.07;64.30
65207;SHT31;58477;48.072;11.970;2023-09-12T07:07:02;28.57;63.32
65207;SHT31;58477;48.072;11.970;2023-09-12T07:09:35;28.46;62.89
65207;SHT31;58477;48.072;11.970;2023-09-12T07:12:05;28.98;61.89
65207;SHT31;58477;48.072;11.970;2023-09-12T07:14:31;28.88;62.01
65207;SHT31;58477;48.072;11.970;2023-09-12T07:16:57;28.94;61.40
65207;SHT31;58477;48.072;11.970;2023-09-12T07:19:35;29.07;60.77
65207;SHT31;58477;48.072;11.970;2023-09-12T07:22:07;29.25;59.90
65207;SHT31;58477;48.072;11.970;2023-09-12T07:24:35;30.00;58.83
65207;SHT31;58477;48.072;11.970;2023-09-12T07:27:07;29.41;58.49
65207;SHT31;58477;48.072;11.970;2023-09-12T07:29:45;28.80;60.85
65207;SHT31;58477;48.072;11.970;2023-09-12T07:32:17;29.62;60.33
65207;SHT31;58477;48.072;11.970;2023-09-12T07:34:53;28.65;62.01
65207;SHT31;58477;48.072;11.970;2023-09-12T07:37:25;28.64;62.24
65207;SHT31;58477;48.072;11.970;2023-09-12T07:39:56;28.63;62.45
65207;SHT31;58477;48.072;11.970;2023-09-12T07:42:28;29.35;61.86
65207;SHT31;58477;48.072;11.970;2023-09-12T07:44:54;28.65;62.19
65207;SHT31;58477;48.072;11.970;2023-09-12T07:47:25;28.80;61.75
65207;SHT31;58477;48.072;11.970;2023-09-12T07:49:57;28.91;61.28
65207;SHT31;58477;48.072;11.970;2023-09-12T07:52:28;29.49;59.81
65207;SHT31;58477;48.072;11.970;2023-09-12T07:55:00;29.39;59.41
65207;SHT31;58477;48.072;11.970;2023-09-12T07:57:31;28.18;61.75
65207;SHT31;58477;48.072;11.970;2023-09-12T08:00:13;29.14;60.92
65207;SHT31;58477;48.072;11.970;2023-09-12T08:02:47;29.86;60.73
65207;SHT31;58477;48.072;11.970;2023-09-12T08:05:22;29.59;60.19
65207;SHT31;58477;48.072;11.970;2023-09-12T08:07:51;28.39;62.63
65207;SHT31;58477;48.072;11.970;2023-09-12T08:10:22;28.84;61.42
65207;SHT31;58477;48.072;11.970;2023-09-12T08:12:47;29.39;59.52
65207;SHT31;58477;48.072;11.970;2023-09-12T08:15:16;30.44;58.53
65207;SHT31;58477;48.072;11.970;2023-09-12T08:17:53;30.09;58.48
65207;SHT31;58477;48.072;11.970;2023-09-12T08:20:25;29.77;59.13
65207;SHT31;58477;48.072;11.970;2023-09-12T08:22:57;30.34;58.92
65207;SHT31;58477;48.072;11.970;2023-09-12T08:25:30;30.98;57.68
65207;SHT31;58477;48.072;11.970;2023-09-12T08:28:02;30.68;57.74
65207;SHT31;58477;48.072;11.970;2023-09-12T08:30:31;30.57;59.35
65207;SHT31;58477;48.072;11.970;2023-09-12T08:33:05;29.49;60.93
65207;SHT31;58477;48.072;11.970;2023-09-12T08:35:34;30.19;60.03
65207;SHT31;58477;48.072;11.970;2023-09-12T08:38:09;31.58;57.08
65207;SHT31;58477;48.072;11.970;2023-09-12T08:40:39;29.55;60.49
65207;SHT31;58477;48.072;11.970;2023-09-12T08:43:18;30.24;59.40
65207;SHT31;58477;48.072;11.970;2023-09-12T08:45:50;31.61;57.69
65207;SHT31;58477;48.072;11.970;2023-09-12T08:48:17;31.45;58.57
65207;SHT31;58477;48.072;11.970;2023-09-12T08:50:55;31.18;57.17
65207;SHT31;58477;48.072;11.970;2023-09-12T08:53:42;30.31;58.92
65207;SHT31;58477;48.072;11.970;2023-09-12T08:56:13;30.99;58.04
65207;SHT31;58477;48.072;11.970;2023-09-12T08:58:46;31.65;57.89
65207;SHT31;58477;48.072;11.970;2023-09-12T09:01:19;31.72;56.72
65207;SHT31;58477;48.072;11.970;2023-09-12T09:03:53;31.70;57.54
65207;SHT31;58477;48.072;11.970;2023-09-12T09:06:28;30.61;58.70
65207;SHT31;58477;48.072;11.970;2023-09-12T09:09:00;31.19;57.08
65207;SHT31;58477;48.072;11.970;2023-09-12T09:11:31;31.82;55.43
65207;SHT31;58477;48.072;11.970;2023-09-12T09:13:57;32.12;55.87
65207;SHT31;58477;48.072;11.970;2023-09-12T09:16:22;32.51;55.30
65207;SHT31;58477;48.072;11.970;2023-09-12T09:18:55;32.97;54.02
65207;SHT31;58477;48.072;11.970;2023-09-12T09:21:25;32.91;53.80
65207;SHT31;58477;48.072;11.970;2023-09-12T09:23:53;33.05;53.00
65207;SHT31;58477;48.072;11.970;2023-09-12T09:26:19;32.51;55.07
65207;SHT31;58477;48.072;11.970;2023-09-12T09:28:45;32.90;54.49
65207;SHT31;58477;48.072;11.970;2023-09-12T09:31:12;32.34;55.68
65207;SHT31;58477;48.072;11.970;2023-09-12T09:33:39;33.19;53.77
65207;SHT31;58477;48.072;11.970;2023-09-12T09:36:07;32.85;53.79
65207;SHT31;58477;48.072;11.970;2023-09-12T09:38:34;32.57;54.30
65207;SHT31;58477;48.072;11.970;2023-09-12T09:41:03;32.45;53.08
65207;SHT31;58477;48.072;11.970;2023-09-12T09:43:30;31.92;53.78
65207;SHT31;58477;48.072;11.970;2023-09-12T09:45:57;32.29;54.83
65207;SHT31;58477;48.072;11.970;2023-09-12T09:48:24;32.97;55.35
65207;SHT31;58477;48.072;11.970;2023-09-12T09:50:52;32.45;54.74
65207;SHT31;58477;48.072;11.970;2023-09-12T09:53:30;31.61;55.27
65207;SHT31;58477;48.072;11.970;2023-09-12T09:56:14;32.16;55.18
65207;SHT31;58477;48.072;11.970;2023-09-12T09:58:51;31.52;55.47
65207;SHT31;58477;48.072;11.970;2023-09-12T10:01:19;33.15;54.56
65207;SHT31;58477;48.072;11.970;2023-09-12T10:03:49;31.70;56.54
65207;SHT31;58477;48.072;11.970;2023-09-12T10:06:19;32.81;54.74
65207;SHT31;58477;48.072;11.970;2023-09-12T10:08:50;32.56;56.97
65207;SHT31;58477;48.072;11.970;2023-09-12T10:11:17;32.75;56.69
65207;SHT31;58477;48.072;11.970;2023-09-12T10:13:49;31.65;58.77
65207;SHT31;58477;48.072;11.970;2023-09-12T10:16:16;32.37;57.53
65207;SHT31;58477;48.072;11.970;2023-09-12T10:18:58;32.91;56.69
65207;SHT31;58477;48.072;11.970;2023-09-12T10:21:32;33.10;56.32
65207;SHT31;58477;48.072;11.970;2023-09-12T10:23:59;33.18;55.86
65207;SHT31;58477;48.072;11.970;2023-09-12T10:26:26;33.26;57.23
65207;SHT31;58477;48.072;11.970;2023-09-12T10:28:52;33.38;55.73
65207;SHT31;58477;48.072;11.970;2023-09-12T10:31:19;32.33;57.31
65207;SHT31;58477;48.072;11.970;2023-09-12T10:33:44;32.20;57.89
65207;SHT31;58477;48.072;11.970;2023-09-12T10:36:12;31.85;58.00
65207;SHT31;58477;48.072;11.970;2023-09-12T10:38:42;31.61;58.77
65207;SHT31;58477;48.072;11.970;2023-09-12T10:41:11;32.51;55.99
65207;SHT31;58477;48.072;11.970;2023-09-12T10:43:39;32.56;55.44
65207;SHT31;58477;48.072;11.970;2023-09-12T10:46:05;32.33;55.51
65207;SHT31;58477;48.072;11.970;2023-09-12T10:48:32;33.63;52.66
65207;SHT31;58477;48.072;11.970;2023-09-12T10:51:00;33.51;52.64
65207;SHT31;58477;48.072;11.970;2023-09-12T10:53:26;33.48;53.98
65207;SHT31;58477;48.072;11.970;2023-09-12T11:01:30;32.27;55.36
65207;SHT31;58477;48.072;11.970;2023-09-12T11:03:55;32.12;55.78
65207;SHT31;58477;48.072;11.970;2023-09-12T11:06:22;31.66;56.23
65207;SHT31;58477;48.072;11.970;2023-09-12T11:09:21;31.38;55.87
65207;SHT31;58477;48.072;11.970;2023-09-12T11:12:35;31.41;56.25
65207;SHT31;58477;48.072;11.970;2023-09-12T11:15:05;31.73;56.53
65207;SHT31;58477;48.072;11.970;2023-09-12T11:17:38;31.61;55.66
65207;SHT31;58477;48.072;11.970;2023-09-12T11:20:04;31.70;55.47
65207;SHT31;58477;48.072;11.970;2023-09-12T11:22:36;32.09;55.79
65207;SHT31;58477;48.072;11.970;2023-09-12T11:25:02;31.07;58.54
65207;SHT31;58477;48.072;11.970;2023-09-12T11:30:24;31.92;52.86
65207;SHT31;58477;48.072;11.970;2023-09-12T11:32:56;31.12;55.22
65207;SHT31;58477;48.072;11.970;2023-09-12T11:35:27;30.87;55.72
65207;SHT31;58477;48.072;11.970;2023-09-12T11:37:55;31.28;52.81
65207;SHT31;58477;48.072;11.970;2023-09-12T11:42:58;30.65;55.71
65207;SHT31;58477;48.072;11.970;2023-09-12T11:45:23;31.12;56.52
65207;SHT31;58477;48.072;11.970;2023-09-12T11:47:49;30.77;55.67
65207;SHT31;58477;48.072;11.970;2023-09-12T11:50:28;30.85;56.66
65207;SHT31;58477;48.072;11.970;2023-09-12T11:53:09;30.54;56.06
65207;SHT31;58477;48.072;11.970;2023-09-12T11:55:44;29.42;59.36
65207;SHT31;58477;48.072;11.970;2023-09-12T11:58:11;29.89;59.60
65207;SHT31;58477;48.072;11.970;2023-09-12T12:00:37;30.36;57.86
65207;SHT31;58477;48.072;11.970;2023-09-12T12:03:03;30.41;58.99
65207;SHT31;58477;48.072;11.970;2023-09-12T12:05:29;29.73;59.38
65207;SHT31;58477;48.072;11.970;2023-09-12T12:07:54;29.66;59.78
65207;SHT31;58477;48.072;11.970;2023-09-12T12:10:20;30.06;59.82
65207;SHT31;58477;48.072;11.970;2023-09-12T12:12:45;29.52;61.35
65207;SHT31;58477;48.072;11.970;2023-09-12T12:15:11;29.79;61.11
65207;SHT31;58477;48.072;11.970;2023-09-12T12:17:37;30.36;59.70
65207;SHT31;58477;48.072;11.970;2023-09-12T12:20:07;30.33;60.22
65207;SHT31;58477;48.072;11.970;2023-09-12T12:22:36;30.43;58.35
65207;SHT31;58477;48.072;11.970;2023-09-12T12:25:06;30.67;58.03
65207;SHT31;58477;48.072;11.970;2023-09-12T12:27:34;31.63;56.79
65207;SHT31;58477;48.072;11.970;2023-09-12T12:30:00;32.19;56.94
65207;SHT31;58477;48.072;11.970;2023-09-12T12:32:25;31.29;56.76
65207;SHT31;58477;48.072;11.970;2023-09-12T12:34:51;31.16;57.57
65207;SHT31;58477;48.072;11.970;2023-09-12T12:37:16;31.50;57.40
65207;SHT31;58477;48.072;11.970;2023-09-12T12:39:42;30.80;59.68
65207;SHT31;58477;48.072;11.970;2023-09-12T12:42:09;30.31;59.45
65207;SHT31;58477;48.072;11.970;2023-09-12T12:44:34;30.43;57.60
65207;SHT31;58477;48.072;11.970;2023-09-12T12:47:04;31.21;58.08
65207;SHT31;58477;48.072;11.970;2023-09-12T12:49:36;31.39;57.84
65207;SHT31;58477;48.072;11.970;2023-09-12T12:52:04;31.24;57.20
65207;SHT31;58477;48.072;11.970;2023-09-12T12:54:31;31.65;57.40
65207;SHT31;58477;48.072;11.970;2023-09-12T12:56:58;30.94;57.16
65207;SHT31;58477;48.072;11.970;2023-09-12T12:59:23;30.74;57.96
65207;SHT31;58477;48.072;11.970;2023-09-12T13:01:50;30.39;58.66
65207;SHT31;58477;48.072;11.970;2023-09-12T13:04:15;30.30;59.46
65207;SHT31;58477;48.072;11.970;2023-09-12T13:06:41;30.40;58.32
65207;SHT31;58477;48.072;11.970;2023-09-12T13:09:07;30.57;58.01
65207;SHT31;58477;48.072;11.970;2023-09-12T13:11:34;30.72;57.96
65207;SHT31;58477;48.072;11.970;2023-09-12T13:14:00;30.53;57.72
65207;SHT31;58477;48.072;11.970;2023-09-12T13:16:25;30.31;57.35
65207;SHT31;58477;48.072;11.970;2023-09-12T13:18:51;29.85;58.68
65207;SHT31;58477;48.072;11.970;2023-09-12T13:21:16;29.67;58.31
65207;SHT31;58477;48.072;11.970;2023-09-12T13:23:42;30.27;56.59
65207;SHT31;58477;48.072;11.970;2023-09-12T13:26:08;30.31;56.53
65207;SHT31;58477;48.072;11.970;2023-09-12T13:28:34;29.99;57.83
65207;SHT31;58477;48.072;11.970;2023-09-12T13:30:59;29.80;58.54
65207;SHT31;58477;48.072;11.970;2023-09-12T13:33:25;29.45;59.30
65207;SHT31;58477;48.072;11.970;2023-09-12T13:35:50;29.19;58.31
65207;SHT31;58477;48.072;11.970;2023-09-12T13:38:17;29.61;59.03
65207;SHT31;58477;48.072;11.970;2023-09-12T13:40:45;29.79;58.16
65207;SHT31;58477;48.072;11.970;2023-09-12T13:43:11;29.29;59.42
65207;SHT31;58477;48.072;11.970;2023-09-12T13:45:36;28.75;60.64
65207;SHT31;58477;48.072;11.970;2023-09-12T13:48:03;28.81;59.63
65207;SHT31;58477;48.072;11.970;2023-09-12T13:50:29;29.02;59.53
65207;SHT31;58477;48.072;11.970;2023-09-12T13:52:55;28.98;59.61
65207;SHT31;58477;48.072;11.970;2023-09-12T13:55:22;29.14;60.17
65207;SHT31;58477;48.072;11.970;2023-09-12T13:57:47;29.22;59.74
65207;SHT31;58477;48.072;11.970;2023-09-12T14:00:13;28.95;59.20
65207;SHT31;58477;48.072;11.970;2023-09-12T14:02:38;29.00;59.72
65207;SHT31;58477;48.072;11.970;2023-09-12T14:05:04;29.18;58.88
65207;SHT31;58477;48.072;11.970;2023-09-12T14:07:29;28.82;59.20
65207;SHT31;58477;48.072;11.970;2023-09-12T14:09:55;29.10;58.43
65207;SHT31;58477;48.072;11.970;2023-09-12T14:12:23;28.74;60.56
65207;SHT31;58477;48.072;11.970;2023-09-12T14:14:48;28.78;59.55
65207;SHT31;58477;48.072;11.970;2023-09-12T14:17:14;28.71;60.51
65207;SHT31;58477;48.072;11.970;2023-09-12T14:19:40;28.77;59.73
65207;SHT31;58477;48.072;11.970;2023-09-12T14:22:05;28.84;59.82
65207;SHT31;58477;48.072;11.970;2023-09-12T14:24:30;29.12;58.78
65207;SHT31;58477;48.072;11.970;2023-09-12T14:26:56;29.01;59.61
65207;SHT31;58477;48.072;11.970;2023-09-12T14:29:21;28.91;59.91
65207;SHT31;58477;48.072;11.970;2023-09-12T14:31:47;28.75;59.37
65207;SHT31;58477;48.072;11.970;2023-09-12T14:34:18;28.72;59.41
65207;SHT31;58477;48.072;11.970;2023-09-12T14:36:43;28.75;59.53
65207;SHT31;58477;48.072;11.970;2023-09-12T14:39:11;28.54;59.70
65207;SHT31;58477;48.072;11.970;2023-09-12T14:41:37;28.57;60.21
65207;SHT31;58477;48.072;11.970;2023-09-12T14:44:02;28.94;58.96
65207;SHT31;58477;48.072;11.970;2023-09-12T14:46:28;28.77;60.29
65207;SHT31;58477;48.072;11.970;2023-09-12T14:48:53;28.72;59.48
65207;SHT31;58477;48.072;11.970;2023-09-12T14:51:19;28.56;59.46
65207;SHT31;58477;48.072;11.970;2023-09-12T14:53:44;28.61;60.11
65207;SHT31;58477;48.072;11.970;2023-09-12T14:56:11;28.53;59.84
65207;SHT31;58477;48.072;11.970;2023-09-12T14:58:37;28.44;59.53
65207;SHT31;58477;48.072;11.970;2023-09-12T15:01:02;28.36;60.15
65207;SHT31;58477;48.072;11.970;2023-09-12T15:03:29;28.36;59.63
65207;SHT31;58477;48.072;11.970;2023-09-12T15:05:54;28.32;60.07
65207;SHT31;58477;48.072;11.970;2023-09-12T15:08:20;28.58;59.20
65207;SHT31;58477;48.072;11.970;2023-09-12T15:10:45;28.70;58.99
65207;SHT31;58477;48.072;11.970;2023-09-12T15:13:11;28.68;59.74
65207;SHT31;58477;48.072;11.970;2023-09-12T15:15:36;28.81;57.61
65207;SHT31;58477;48.072;11.970;2023-09-12T15:18:02;28.67;57.89
65207;SHT31;58477;48.072;11.970;2023-09-12T15:20:28;28.63;58.85
65207;SHT31;58477;48.072;11.970;2023-09-12T15:22:54;28.18;60.20
65207;SHT31;58477;48.072;11.970;2023-09-12T15:25:19;28.14;59.58
65207;SHT31;58477;48.072;11.970;2023-09-12T15:27:44;28.28;59.17
65207;SHT31;58477;48.072;11.970;2023-09-12T15:30:10;28.51;58.79
65207;SHT31;58477;48.072;11.970;2023-09-12T15:32:36;28.53;59.45
65207;SHT31;58477;48.072;11.970;2023-09-12T15:35:01;28.51;59.01
65207;SHT31;58477;48.072;11.970;2023-09-12T15:37:27;28.43;57.54
65207;SHT31;58477;48.072;11.970;2023-09-12T15:39:52;28.12;59.25